Hauptseite
METAR-TAF:

METAR-TAF

Flughäfen :

Tebessa, Algerien

Breite: 35-29N, Länge: 008-08E, Höhe: 813 m

Beobachtung

Neuester Wetterbericht von vor 33 Minuten, um 09:00 UTC
Wind 2 kt aus West/Nordwest
Temperatur 11°C
Luftfeuchtigkeit 43%
Luftdruck 1023 hPa
Sichtweite 10 km oder mehr
keine Wolken unter 1500 m und keine Kumulonimbus oder Gewitterwolken

METAR: DABS 240900Z 30002KT CAVOK 11/M01 Q1023

Zeit: 10:33 (09:33 UTC)

Prognose

Neuester Wetterbericht von vor 4 Stunden und 33 Minuten, um 05:00 UTC
Gültige Prognose vom 24 um 06 UTC bis 25 um 06 UTC
Wind 8 kt aus Nord
Sichtweite 10 km oder mehr
Leicht bewölkt in der Höhe von 3000 ft
Wahrscheinlichkeit 30% :
Zeitweise
vom 24 um 06 UTC bis 24 um 08 UTC
Sichtweite: 2000 m
feuchter Dunst
Übergehend zu
vom 24 um 10 UTC bis 24 um 12 UTC
Wind 13 kt aus Süd/Südost

TAF: DABS 240500Z 2406/2506 35008KT 9999 FEW030 PROB30 TEMPO 2406/2408 2000 BR BKN0010 BECMG 2410/2412 15013KT

Wetterbeobachtungen und Prognosen von mehr als 4000 Flughäfen (METAR und TAF Bericht).

Die verfügbaren Stationen werden durch gelbe und rote Markierungen auf der Karte dargestellt.

Führen Sie die Maus auf sie, um den Namen der Station zu sehen.

Darauf klicken, um die Beobachtung von Wetterbeobachtungen und Prognosen zu sehen.

Um die Karte zu ändern : klicken Sie auf den grünen Tasten mit einem schwarzen Kreuz Zum Vergrößern, auf den grünen Button mit einem Gedankenstrich zu verkleinern, oder auf die grünen Pfeile für benachbarte Karten.


METAR-TAF: